sensor_id;sensor_type;location;lat;lon;timestamp;pressure;altitude;pressure_sealevel;temperature;humidity
57048;BME280;42934;54.294;18.598;2023-12-20T00:01:12;99639.53;;;6.82;97.62
57048;BME280;42934;54.294;18.598;2023-12-20T00:03:43;99640.91;;;6.93;97.31
57048;BME280;42934;54.294;18.598;2023-12-20T00:06:13;99635.94;;;6.85;97.21
57048;BME280;42934;54.294;18.598;2023-12-20T00:08:42;99643.03;;;6.81;97.49
57048;BME280;42934;54.294;18.598;2023-12-20T00:11:12;99636.53;;;6.93;97.53
57048;BME280;42934;54.294;18.598;2023-12-20T00:13:41;99638.31;;;6.93;97.68
57048;BME280;42934;54.294;18.598;2023-12-20T00:16:10;99641.81;;;6.92;97.47
57048;BME280;42934;54.294;18.598;2023-12-20T00:18:39;99653.91;;;6.94;97.51
57048;BME280;42934;54.294;18.598;2023-12-20T00:21:08;99655.81;;;6.89;97.84
57048;BME280;42934;54.294;18.598;2023-12-20T00:23:38;99647.69;;;6.98;97.25
57048;BME280;42934;54.294;18.598;2023-12-20T00:26:07;99658.31;;;6.92;97.63
57048;BME280;42934;54.294;18.598;2023-12-20T00:28:35;99654.69;;;6.96;97.99
57048;BME280;42934;54.294;18.598;2023-12-20T00:31:04;99659.31;;;6.88;98.31
57048;BME280;42934;54.294;18.598;2023-12-20T00:33:33;99651.50;;;6.88;98.62
57048;BME280;42934;54.294;18.598;2023-12-20T00:36:03;99655.81;;;6.89;98.17
57048;BME280;42934;54.294;18.598;2023-12-20T00:38:33;99650.06;;;6.79;98.30
57048;BME280;42934;54.294;18.598;2023-12-20T00:41:03;99656.13;;;6.80;98.34
57048;BME280;42934;54.294;18.598;2023-12-20T00:43:32;99654.06;;;6.90;98.07
57048;BME280;42934;54.294;18.598;2023-12-20T00:46:01;99655.13;;;6.84;98.39
57048;BME280;42934;54.294;18.598;2023-12-20T00:48:30;99667.31;;;6.83;98.15
57048;BME280;42934;54.294;18.598;2023-12-20T00:50:59;99659.13;;;6.94;97.61
57048;BME280;42934;54.294;18.598;2023-12-20T00:53:28;99656.16;;;6.78;97.24
57048;BME280;42934;54.294;18.598;2023-12-20T00:55:57;99664.19;;;6.72;97.26
57048;BME280;42934;54.294;18.598;2023-12-20T00:58:28;99660.31;;;6.86;97.21
57048;BME280;42934;54.294;18.598;2023-12-20T01:00:57;99657.38;;;6.68;97.23
57048;BME280;42934;54.294;18.598;2023-12-20T01:03:26;99664.31;;;6.69;96.46
57048;BME280;42934;54.294;18.598;2023-12-20T01:05:56;99654.63;;;6.73;95.80
57048;BME280;42934;54.294;18.598;2023-12-20T01:08:24;99647.47;;;6.79;95.37
57048;BME280;42934;54.294;18.598;2023-12-20T01:10:53;99657.59;;;6.62;94.21
57048;BME280;42934;54.294;18.598;2023-12-20T01:13:22;99652.31;;;6.64;93.81
57048;BME280;42934;54.294;18.598;2023-12-20T01:15:53;99648.88;;;6.62;92.89
57048;BME280;42934;54.294;18.598;2023-12-20T01:18:21;99660.13;;;6.64;92.76
57048;BME280;42934;54.294;18.598;2023-12-20T01:20:50;99658.34;;;6.66;92.66
57048;BME280;42934;54.294;18.598;2023-12-20T01:23:19;99662.31;;;6.77;93.34
57048;BME280;42934;54.294;18.598;2023-12-20T01:25:48;99657.78;;;6.82;93.31
57048;BME280;42934;54.294;18.598;2023-12-20T01:28:17;99662.34;;;6.76;92.48
57048;BME280;42934;54.294;18.598;2023-12-20T01:30:46;99650.22;;;6.75;91.05
57048;BME280;42934;54.294;18.598;2023-12-20T01:33:16;99655.28;;;6.79;91.65
57048;BME280;42934;54.294;18.598;2023-12-20T01:35:45;99653.88;;;6.69;90.55
57048;BME280;42934;54.294;18.598;2023-12-20T01:38:14;99639.69;;;6.76;91.64
57048;BME280;42934;54.294;18.598;2023-12-20T01:40:46;99643.19;;;6.77;91.55
57048;BME280;42934;54.294;18.598;2023-12-20T01:43:15;99644.88;;;6.78;92.11
57048;BME280;42934;54.294;18.598;2023-12-20T01:45:44;99640.50;;;6.78;91.65
57048;BME280;42934;54.294;18.598;2023-12-20T01:48:13;99635.28;;;6.78;92.06
57048;BME280;42934;54.294;18.598;2023-12-20T01:50:45;99632.78;;;6.75;90.85
57048;BME280;42934;54.294;18.598;2023-12-20T01:53:14;99637.16;;;6.75;91.24
57048;BME280;42934;54.294;18.598;2023-12-20T01:55:43;99643.41;;;6.71;91.05
57048;BME280;42934;54.294;18.598;2023-12-20T01:58:12;99641.03;;;6.63;89.75
57048;BME280;42934;54.294;18.598;2023-12-20T02:00:42;99642.72;;;6.64;89.65
57048;BME280;42934;54.294;18.598;2023-12-20T02:03:11;99634.91;;;6.64;90.41
57048;BME280;42934;54.294;18.598;2023-12-20T02:05:40;99644.66;;;6.59;89.38
57048;BME280;42934;54.294;18.598;2023-12-20T02:08:10;99638.25;;;6.41;87.40
57048;BME280;42934;54.294;18.598;2023-12-20T02:10:40;99637.66;;;6.33;86.73
57048;BME280;42934;54.294;18.598;2023-12-20T02:13:09;99633.59;;;6.51;89.46
57048;BME280;42934;54.294;18.598;2023-12-20T02:15:38;99635.63;;;6.41;87.82
57048;BME280;42934;54.294;18.598;2023-12-20T02:18:09;99641.22;;;6.30;87.05
57048;BME280;42934;54.294;18.598;2023-12-20T02:20:43;99646.88;;;6.43;89.05
57048;BME280;42934;54.294;18.598;2023-12-20T02:23:13;99644.69;;;6.29;87.45
57048;BME280;42934;54.294;18.598;2023-12-20T02:25:42;99643.63;;;6.36;88.06
57048;BME280;42934;54.294;18.598;2023-12-20T02:28:11;99656.94;;;6.27;87.04
57048;BME280;42934;54.294;18.598;2023-12-20T02:30:40;99652.44;;;6.32;87.21
57048;BME280;42934;54.294;18.598;2023-12-20T02:33:10;99651.88;;;6.23;86.37
57048;BME280;42934;54.294;18.598;2023-12-20T02:35:41;99644.63;;;6.32;87.82
57048;BME280;42934;54.294;18.598;2023-12-20T02:38:09;99648.78;;;6.38;88.51
57048;BME280;42934;54.294;18.598;2023-12-20T02:40:40;99646.13;;;6.40;88.99
57048;BME280;42934;54.294;18.598;2023-12-20T02:43:16;99646.06;;;6.41;88.67
57048;BME280;42934;54.294;18.598;2023-12-20T02:45:45;99643.38;;;6.44;88.90
57048;BME280;42934;54.294;18.598;2023-12-20T02:48:14;99640.72;;;6.46;89.50
57048;BME280;42934;54.294;18.598;2023-12-20T02:50:43;99639.91;;;6.44;88.88
57048;BME280;42934;54.294;18.598;2023-12-20T02:53:13;99635.69;;;6.40;88.63
57048;BME280;42934;54.294;18.598;2023-12-20T02:55:44;99635.81;;;6.36;88.64
57048;BME280;42934;54.294;18.598;2023-12-20T02:58:13;99639.59;;;6.26;87.78
57048;BME280;42934;54.294;18.598;2023-12-20T03:00:42;99629.16;;;6.26;87.87
57048;BME280;42934;54.294;18.598;2023-12-20T03:03:11;99630.53;;;6.10;85.88
57048;BME280;42934;54.294;18.598;2023-12-20T03:05:40;99628.31;;;5.98;85.10
57048;BME280;42934;54.294;18.598;2023-12-20T03:08:09;99608.75;;;6.12;88.02
57048;BME280;42934;54.294;18.598;2023-12-20T03:10:38;99601.63;;;5.88;86.02
57048;BME280;42934;54.294;18.598;2023-12-20T03:13:08;99618.09;;;5.90;86.70
57048;BME280;42934;54.294;18.598;2023-12-20T03:15:38;99614.72;;;5.86;86.21
57048;BME280;42934;54.294;18.598;2023-12-20T03:18:06;99621.28;;;6.00;87.04
57048;BME280;42934;54.294;18.598;2023-12-20T03:20:35;99612.81;;;5.93;86.72
57048;BME280;42934;54.294;18.598;2023-12-20T03:23:04;99620.41;;;6.01;87.34
57048;BME280;42934;54.294;18.598;2023-12-20T03:25:33;99610.75;;;6.04;87.76
57048;BME280;42934;54.294;18.598;2023-12-20T03:28:02;99609.78;;;6.07;88.05
57048;BME280;42934;54.294;18.598;2023-12-20T03:30:33;99613.16;;;6.10;87.52
57048;BME280;42934;54.294;18.598;2023-12-20T03:33:02;99605.31;;;6.12;87.35
57048;BME280;42934;54.294;18.598;2023-12-20T03:35:31;99605.31;;;6.12;87.83
57048;BME280;42934;54.294;18.598;2023-12-20T03:37:59;99608.03;;;6.07;87.66
57048;BME280;42934;54.294;18.598;2023-12-20T03:40:28;99611.78;;;5.99;86.45
57048;BME280;42934;54.294;18.598;2023-12-20T03:42:57;99603.88;;;6.02;87.36
57048;BME280;42934;54.294;18.598;2023-12-20T03:45:26;99606.44;;;6.03;87.78
57048;BME280;42934;54.294;18.598;2023-12-20T03:47:56;99616.75;;;6.06;88.35
57048;BME280;42934;54.294;18.598;2023-12-20T03:50:26;99608.31;;;5.98;87.19
57048;BME280;42934;54.294;18.598;2023-12-20T03:52:55;99610.78;;;6.03;87.99
57048;BME280;42934;54.294;18.598;2023-12-20T03:55:24;99610.69;;;6.06;88.05
57048;BME280;42934;54.294;18.598;2023-12-20T03:57:53;99614.16;;;6.06;88.57
57048;BME280;42934;54.294;18.598;2023-12-20T04:00:22;99618.56;;;6.04;87.53
57048;BME280;42934;54.294;18.598;2023-12-20T04:02:51;99620.41;;;6.01;87.59
57048;BME280;42934;54.294;18.598;2023-12-20T04:05:21;99617.94;;;5.96;87.01
57048;BME280;42934;54.294;18.598;2023-12-20T04:07:50;99616.28;;;5.94;87.40
57048;BME280;42934;54.294;18.598;2023-12-20T04:10:20;99620.53;;;5.96;87.43
57048;BME280;42934;54.294;18.598;2023-12-20T04:12:49;99610.09;;;5.98;88.05
57048;BME280;42934;54.294;18.598;2023-12-20T04:15:18;99617.91;;;5.98;88.08
57048;BME280;42934;54.294;18.598;2023-12-20T04:17:47;99614.47;;;5.96;87.43
57048;BME280;42934;54.294;18.598;2023-12-20T04:20:16;99613.88;;;5.86;86.58
57048;BME280;42934;54.294;18.598;2023-12-20T04:22:47;99611.41;;;5.81;86.62
57048;BME280;42934;54.294;18.598;2023-12-20T04:25:16;99610.25;;;5.62;85.97
57048;BME280;42934;54.294;18.598;2023-12-20T04:27:44;99615.19;;;5.71;87.21
57048;BME280;42934;54.294;18.598;2023-12-20T04:30:14;99613.28;;;5.76;87.41
57048;BME280;42934;54.294;18.598;2023-12-20T04:32:43;99605.56;;;5.73;87.32
57048;BME280;42934;54.294;18.598;2023-12-20T04:35:12;99614.25;;;5.74;87.63
57048;BME280;42934;54.294;18.598;2023-12-20T04:37:41;99614.09;;;5.78;87.67
57048;BME280;42934;54.294;18.598;2023-12-20T04:40:12;99617.59;;;5.77;87.71
57048;BME280;42934;54.294;18.598;2023-12-20T04:42:41;99609.91;;;5.73;86.92
57048;BME280;42934;54.294;18.598;2023-12-20T04:45:10;99615.13;;;5.73;87.48
57048;BME280;42934;54.294;18.598;2023-12-20T04:47:41;99611.59;;;5.75;87.50
57048;BME280;42934;54.294;18.598;2023-12-20T04:50:10;99614.16;;;5.77;87.84
57048;BME280;42934;54.294;18.598;2023-12-20T04:52:41;99613.25;;;5.78;87.29
57048;BME280;42934;54.294;18.598;2023-12-20T04:55:11;99621.06;;;5.78;87.59
57048;BME280;42934;54.294;18.598;2023-12-20T04:57:40;99619.50;;;5.72;86.41
57048;BME280;42934;54.294;18.598;2023-12-20T05:00:10;99624.03;;;5.65;86.87
57048;BME280;42934;54.294;18.598;2023-12-20T05:02:39;99625.09;;;5.58;86.39
57048;BME280;42934;54.294;18.598;2023-12-20T05:05:08;99621.78;;;5.53;87.48
57048;BME280;42934;54.294;18.598;2023-12-20T05:07:37;99620.31;;;5.43;86.19
57048;BME280;42934;54.294;18.598;2023-12-20T05:10:07;99616.78;;;5.45;86.90
57048;BME280;42934;54.294;18.598;2023-12-20T05:12:37;99622.09;;;5.41;86.10
57048;BME280;42934;54.294;18.598;2023-12-20T05:15:07;99614.19;;;5.45;87.66
57048;BME280;42934;54.294;18.598;2023-12-20T05:17:36;99613.09;;;5.53;86.96
57048;BME280;42934;54.294;18.598;2023-12-20T05:20:06;99608.78;;;5.53;87.50
57048;BME280;42934;54.294;18.598;2023-12-20T05:22:35;99613.25;;;5.48;86.84
57048;BME280;42934;54.294;18.598;2023-12-20T05:25:04;99616.59;;;5.52;86.93
57048;BME280;42934;54.294;18.598;2023-12-20T05:27:33;99617.44;;;5.52;86.80
57048;BME280;42934;54.294;18.598;2023-12-20T05:30:04;99614.00;;;5.52;86.86
57048;BME280;42934;54.294;18.598;2023-12-20T05:32:33;99615.75;;;5.51;87.04
57048;BME280;42934;54.294;18.598;2023-12-20T05:35:02;99618.44;;;5.48;87.53
57048;BME280;42934;54.294;18.598;2023-12-20T05:37:31;99617.59;;;5.47;87.53
57048;BME280;42934;54.294;18.598;2023-12-20T05:40:00;99608.13;;;5.45;87.17
57048;BME280;42934;54.294;18.598;2023-12-20T05:42:30;99604.13;;;5.33;86.50
57048;BME280;42934;54.294;18.598;2023-12-20T05:44:59;99602.47;;;5.29;85.61
57048;BME280;42934;54.294;18.598;2023-12-20T05:47:29;99608.41;;;5.34;87.18
57048;BME280;42934;54.294;18.598;2023-12-20T05:49:58;99609.41;;;5.30;86.45
57048;BME280;42934;54.294;18.598;2023-12-20T05:52:27;99611.88;;;5.35;87.03
57048;BME280;42934;54.294;18.598;2023-12-20T05:54:56;99615.31;;;5.35;87.42
57048;BME280;42934;54.294;18.598;2023-12-20T05:57:25;99604.06;;;5.35;87.23
57048;BME280;42934;54.294;18.598;2023-12-20T05:59:54;99598.84;;;5.35;87.22
57048;BME280;42934;54.294;18.598;2023-12-20T06:02:23;99594.63;;;5.31;86.95
57048;BME280;42934;54.294;18.598;2023-12-20T06:04:53;99601.53;;;5.32;87.14
57048;BME280;42934;54.294;18.598;2023-12-20T06:07:22;99602.44;;;5.31;86.97
57048;BME280;42934;54.294;18.598;2023-12-20T06:09:51;99593.78;;;5.30;87.03
57048;BME280;42934;54.294;18.598;2023-12-20T06:12:20;99589.44;;;5.31;86.54
57048;BME280;42934;54.294;18.598;2023-12-20T06:14:49;99589.53;;;5.28;86.42
57048;BME280;42934;54.294;18.598;2023-12-20T06:17:18;99583.56;;;5.24;86.61
57048;BME280;42934;54.294;18.598;2023-12-20T06:19:47;99592.66;;;5.08;86.02
57048;BME280;42934;54.294;18.598;2023-12-20T06:22:18;99588.97;;;5.16;86.63
57048;BME280;42934;54.294;18.598;2023-12-20T06:24:47;99581.97;;;5.18;86.88
57048;BME280;42934;54.294;18.598;2023-12-20T06:27:16;99582.94;;;5.14;87.02
57048;BME280;42934;54.294;18.598;2023-12-20T06:29:45;99581.16;;;5.16;86.69
57048;BME280;42934;54.294;18.598;2023-12-20T06:32:13;99575.03;;;5.17;87.34
57048;BME280;42934;54.294;18.598;2023-12-20T06:34:42;99572.44;;;5.17;87.04
57048;BME280;42934;54.294;18.598;2023-12-20T06:37:11;99557.81;;;5.13;87.08
57048;BME280;42934;54.294;18.598;2023-12-20T06:39:42;99558.84;;;5.08;86.20
57048;BME280;42934;54.294;18.598;2023-12-20T06:42:11;99562.28;;;5.10;87.02
57048;BME280;42934;54.294;18.598;2023-12-20T06:44:40;99564.06;;;5.08;86.87
57048;BME280;42934;54.294;18.598;2023-12-20T06:47:09;99548.91;;;4.91;86.28
57048;BME280;42934;54.294;18.598;2023-12-20T06:49:38;99562.78;;;4.91;86.05
57048;BME280;42934;54.294;18.598;2023-12-20T06:52:06;99559.31;;;4.91;87.08
57048;BME280;42934;54.294;18.598;2023-12-20T06:54:36;99544.88;;;4.79;86.44
57048;BME280;42934;54.294;18.598;2023-12-20T06:57:06;99554.91;;;4.93;86.70
57048;BME280;42934;54.294;18.598;2023-12-20T06:59:38;99554.25;;;4.86;85.91
57048;BME280;42934;54.294;18.598;2023-12-20T07:02:07;99556.34;;;4.72;85.38
57048;BME280;42934;54.294;18.598;2023-12-20T07:04:42;99555.75;;;4.26;84.47
57048;BME280;42934;54.294;18.598;2023-12-20T07:07:11;99555.41;;;4.42;86.02
57048;BME280;42934;54.294;18.598;2023-12-20T07:09:40;99553.16;;;4.62;87.51
57048;BME280;42934;54.294;18.598;2023-12-20T07:12:12;99565.25;;;4.63;86.43
57048;BME280;42934;54.294;18.598;2023-12-20T07:14:41;99568.19;;;4.84;86.51
57048;BME280;42934;54.294;18.598;2023-12-20T07:17:09;99563.66;;;4.90;86.40
57048;BME280;42934;54.294;18.598;2023-12-20T07:19:41;99565.38;;;4.91;86.09
57048;BME280;42934;54.294;18.598;2023-12-20T07:22:10;99563.56;;;4.93;86.33
57048;BME280;42934;54.294;18.598;2023-12-20T07:24:39;99562.78;;;4.91;86.36
57048;BME280;42934;54.294;18.598;2023-12-20T07:27:08;99561.91;;;4.91;86.19
57048;BME280;42934;54.294;18.598;2023-12-20T07:29:38;99565.66;;;4.81;85.19
57048;BME280;42934;54.294;18.598;2023-12-20T07:32:07;99560.97;;;4.61;84.85
57048;BME280;42934;54.294;18.598;2023-12-20T07:34:36;99554.81;;;4.65;84.23
57048;BME280;42934;54.294;18.598;2023-12-20T07:37:05;99561.66;;;4.67;84.26
57048;BME280;42934;54.294;18.598;2023-12-20T07:39:34;99557.09;;;4.43;83.69
57048;BME280;42934;54.294;18.598;2023-12-20T07:42:03;99554.66;;;4.71;85.31
57048;BME280;42934;54.294;18.598;2023-12-20T07:44:32;99548.25;;;4.50;84.31
57048;BME280;42934;54.294;18.598;2023-12-20T07:47:02;99547.38;;;4.51;84.64
57048;BME280;42934;54.294;18.598;2023-12-20T07:49:32;99547.88;;;4.64;85.01
57048;BME280;42934;54.294;18.598;2023-12-20T07:52:01;99545.91;;;4.73;84.79
57048;BME280;42934;54.294;18.598;2023-12-20T07:54:30;99535.22;;;4.51;84.04
57048;BME280;42934;54.294;18.598;2023-12-20T07:56:59;99532.34;;;4.62;84.56
57048;BME280;42934;54.294;18.598;2023-12-20T07:59:28;99543.44;;;4.69;84.55
57048;BME280;42934;54.294;18.598;2023-12-20T08:01:59;99528.75;;;4.68;83.63
57048;BME280;42934;54.294;18.598;2023-12-20T08:04:30;99531.53;;;4.60;83.43
57048;BME280;42934;54.294;18.598;2023-12-20T08:07:00;99519.44;;;4.59;83.72
57048;BME280;42934;54.294;18.598;2023-12-20T08:09:29;99531.78;;;4.51;83.02
57048;BME280;42934;54.294;18.598;2023-12-20T08:11:59;99524.22;;;4.42;83.64
57048;BME280;42934;54.294;18.598;2023-12-20T08:14:28;99519.13;;;4.37;83.52
57048;BME280;42934;54.294;18.598;2023-12-20T08:16:57;99524.44;;;4.32;84.55
57048;BME280;42934;54.294;18.598;2023-12-20T08:19:26;99521.19;;;4.24;84.18
57048;BME280;42934;54.294;18.598;2023-12-20T08:21:56;99517.66;;;4.27;84.70
57048;BME280;42934;54.294;18.598;2023-12-20T08:24:25;99515.13;;;4.24;84.47
57048;BME280;42934;54.294;18.598;2023-12-20T08:26:54;99517.00;;;4.19;84.58
57048;BME280;42934;54.294;18.598;2023-12-20T08:29:23;99513.47;;;4.21;84.92
57048;BME280;42934;54.294;18.598;2023-12-20T08:31:52;99520.19;;;4.30;85.14
57048;BME280;42934;54.294;18.598;2023-12-20T08:34:21;99514.72;;;4.05;84.98
57048;BME280;42934;54.294;18.598;2023-12-20T08:36:51;99508.53;;;4.10;85.42
57048;BME280;42934;54.294;18.598;2023-12-20T08:39:21;99505.47;;;3.93;85.86
57048;BME280;42934;54.294;18.598;2023-12-20T08:41:50;99506.09;;;4.04;85.60
57048;BME280;42934;54.294;18.598;2023-12-20T08:44:19;99492.81;;;3.79;86.49
57048;BME280;42934;54.294;18.598;2023-12-20T08:46:49;99497.69;;;3.93;87.53
57048;BME280;42934;54.294;18.598;2023-12-20T08:49:18;99481.09;;;3.99;86.83
57048;BME280;42934;54.294;18.598;2023-12-20T08:51:47;99492.94;;;4.10;87.23
57048;BME280;42934;54.294;18.598;2023-12-20T08:54:16;99496.81;;;4.28;87.01
57048;BME280;42934;54.294;18.598;2023-12-20T08:56:48;99488.19;;;4.26;87.14
57048;BME280;42934;54.294;18.598;2023-12-20T08:59:17;99494.81;;;4.38;86.69
57048;BME280;42934;54.294;18.598;2023-12-20T09:01:46;99482.72;;;4.39;86.88
57048;BME280;42934;54.294;18.598;2023-12-20T09:04:16;99478.84;;;4.53;87.32
57048;BME280;42934;54.294;18.598;2023-12-20T09:06:45;99474.41;;;4.57;86.50
57048;BME280;42934;54.294;18.598;2023-12-20T09:09:14;99476.41;;;4.47;86.44
57048;BME280;42934;54.294;18.598;2023-12-20T09:11:43;99474.34;;;4.60;86.15
57048;BME280;42934;54.294;18.598;2023-12-20T09:14:15;99474.41;;;4.57;85.35
57048;BME280;42934;54.294;18.598;2023-12-20T09:16:44;99472.56;;;4.61;85.86
57048;BME280;42934;54.294;18.598;2023-12-20T09:19:13;99467.34;;;4.62;85.32
57048;BME280;42934;54.294;18.598;2023-12-20T09:21:42;99465.63;;;4.61;84.61
57048;BME280;42934;54.294;18.598;2023-12-20T09:24:11;99464.88;;;4.58;84.27
57048;BME280;42934;54.294;18.598;2023-12-20T09:26:40;99447.97;;;4.74;85.15
57048;BME280;42934;54.294;18.598;2023-12-20T09:29:10;99443.16;;;4.59;85.09
57048;BME280;42934;54.294;18.598;2023-12-20T09:31:44;99435.41;;;4.57;84.72
57048;BME280;42934;54.294;18.598;2023-12-20T09:34:14;99440.34;;;4.68;85.08
57048;BME280;42934;54.294;18.598;2023-12-20T09:36:44;99428.94;;;4.72;84.88
57048;BME280;42934;54.294;18.598;2023-12-20T09:39:15;99434.31;;;4.66;84.74
57048;BME280;42934;54.294;18.598;2023-12-20T09:41:49;99417.44;;;4.81;84.72
57048;BME280;42934;54.294;18.598;2023-12-20T09:44:20;99421.31;;;4.66;85.09
57048;BME280;42934;54.294;18.598;2023-12-20T09:46:51;99414.25;;;4.71;84.12
57048;BME280;42934;54.294;18.598;2023-12-20T09:49:21;99404.78;;;4.68;84.97
57048;BME280;42934;54.294;18.598;2023-12-20T09:51:50;99397.06;;;4.65;84.75
57048;BME280;42934;54.294;18.598;2023-12-20T09:54:20;99397.78;;;4.70;84.75
57048;BME280;42934;54.294;18.598;2023-12-20T09:56:49;99400.34;;;4.72;85.45
57048;BME280;42934;54.294;18.598;2023-12-20T09:59:18;99400.25;;;4.75;85.43
57048;BME280;42934;54.294;18.598;2023-12-20T10:01:47;99384.91;;;4.66;85.45
57048;BME280;42934;54.294;18.598;2023-12-20T10:04:18;99384.38;;;4.54;85.74
57048;BME280;42934;54.294;18.598;2023-12-20T10:06:57;99371.38;;;4.54;85.57
57048;BME280;42934;54.294;18.598;2023-12-20T10:09:33;99374.63;;;4.61;85.47
57048;BME280;42934;54.294;18.598;2023-12-20T10:12:03;99371.09;;;4.64;85.67
57048;BME280;42934;54.294;18.598;2023-12-20T10:14:33;99368.22;;;4.73;85.44
57048;BME280;42934;54.294;18.598;2023-12-20T10:17:02;99374.47;;;4.67;84.81
57048;BME280;42934;54.294;18.598;2023-12-20T10:19:32;99370.72;;;4.77;85.00
57048;BME280;42934;54.294;18.598;2023-12-20T10:22:03;99362.44;;;4.65;84.70
57048;BME280;42934;54.294;18.598;2023-12-20T10:24:33;99355.56;;;4.62;85.12
57048;BME280;42934;54.294;18.598;2023-12-20T10:27:02;99349.19;;;4.72;85.21
57048;BME280;42934;54.294;18.598;2023-12-20T10:29:33;99339.34;;;4.54;85.41
57048;BME280;42934;54.294;18.598;2023-12-20T10:32:23;99342.56;;;4.62;85.47
57048;BME280;42934;54.294;18.598;2023-12-20T10:34:54;99336.50;;;4.62;85.04
57048;BME280;42934;54.294;18.598;2023-12-20T10:37:24;99336.72;;;4.54;85.96
57048;BME280;42934;54.294;18.598;2023-12-20T10:39:53;99339.81;;;4.67;85.67
57048;BME280;42934;54.294;18.598;2023-12-20T10:42:26;99328.09;;;4.53;85.68
57048;BME280;42934;54.294;18.598;2023-12-20T10:44:56;99330.31;;;4.66;85.92
57048;BME280;42934;54.294;18.598;2023-12-20T10:47:25;99328.69;;;4.62;85.40
57048;BME280;42934;54.294;18.598;2023-12-20T10:49:55;99307.56;;;4.74;85.79
57048;BME280;42934;54.294;18.598;2023-12-20T10:52:25;99309.75;;;4.58;85.96
57048;BME280;42934;54.294;18.598;2023-12-20T10:54:56;99304.22;;;4.69;86.15
57048;BME280;42934;54.294;18.598;2023-12-20T10:57:25;99308.59;;;4.68;85.75
57048;BME280;42934;54.294;18.598;2023-12-20T10:59:55;99295.63;;;4.67;86.00
57048;BME280;42934;54.294;18.598;2023-12-20T11:02:24;99287.88;;;4.65;85.99
57048;BME280;42934;54.294;18.598;2023-12-20T11:04:59;99283.38;;;4.70;86.29
57048;BME280;42934;54.294;18.598;2023-12-20T11:07:33;99268.06;;;4.61;86.71
57048;BME280;42934;54.294;18.598;2023-12-20T11:10:10;99272.47;;;4.59;87.44
57048;BME280;42934;54.294;18.598;2023-12-20T11:12:44;99256.63;;;4.67;86.47
57048;BME280;42934;54.294;18.598;2023-12-20T11:15:16;99247.22;;;4.63;86.75
57048;BME280;42934;54.294;18.598;2023-12-20T11:17:45;99244.47;;;4.67;87.19
57048;BME280;42934;54.294;18.598;2023-12-20T11:20:21;99244.56;;;4.64;87.74
57048;BME280;42934;54.294;18.598;2023-12-20T11:22:52;99232.75;;;4.54;88.35
57048;BME280;42934;54.294;18.598;2023-12-20T11:25:21;99234.13;;;4.66;88.19
57048;BME280;42934;54.294;18.598;2023-12-20T11:28:07;99227.81;;;4.73;88.12
57048;BME280;42934;54.294;18.598;2023-12-20T11:30:40;99219.69;;;4.55;88.44
57048;BME280;42934;54.294;18.598;2023-12-20T11:33:09;99223.00;;;4.61;88.17
57048;BME280;42934;54.294;18.598;2023-12-20T11:35:40;99220.78;;;4.76;88.34
57048;BME280;42934;54.294;18.598;2023-12-20T11:38:09;99218.97;;;4.78;88.35
57048;BME280;42934;54.294;18.598;2023-12-20T11:40:38;99226.84;;;4.77;88.48
57048;BME280;42934;54.294;18.598;2023-12-20T11:43:07;99213.94;;;4.74;88.61
57048;BME280;42934;54.294;18.598;2023-12-20T11:45:36;99204.38;;;4.74;88.79
57048;BME280;42934;54.294;18.598;2023-12-20T11:48:05;99201.72;;;4.76;88.56
57048;BME280;42934;54.294;18.598;2023-12-20T11:50:35;99193.91;;;4.76;88.97
57048;BME280;42934;54.294;18.598;2023-12-20T11:53:05;99190.53;;;4.74;89.23
57048;BME280;42934;54.294;18.598;2023-12-20T11:55:34;99178.53;;;4.70;89.92
57048;BME280;42934;54.294;18.598;2023-12-20T11:58:04;99172.06;;;4.82;89.44
57048;BME280;42934;54.294;18.598;2023-12-20T12:00:33;99164.53;;;4.74;89.34
57048;BME280;42934;54.294;18.598;2023-12-20T12:03:02;99161.84;;;4.77;88.97
57048;BME280;42934;54.294;18.598;2023-12-20T12:05:31;99169.16;;;4.64;90.33
57048;BME280;42934;54.294;18.598;2023-12-20T12:08:01;99161.03;;;4.75;89.45
57048;BME280;42934;54.294;18.598;2023-12-20T12:10:33;99156.38;;;4.85;89.63
57048;BME280;42934;54.294;18.598;2023-12-20T12:13:02;99151.28;;;4.82;89.32
57048;BME280;42934;54.294;18.598;2023-12-20T12:15:31;99150.38;;;4.83;89.85
57048;BME280;42934;54.294;18.598;2023-12-20T12:18:00;99138.44;;;4.77;89.36
57048;BME280;42934;54.294;18.598;2023-12-20T12:20:29;99140.44;;;4.94;89.25
57048;BME280;42934;54.294;18.598;2023-12-20T12:22:58;99136.56;;;4.81;88.13
57048;BME280;42934;54.294;18.598;2023-12-20T12:25:28;99138.25;;;4.82;89.15
57048;BME280;42934;54.294;18.598;2023-12-20T12:27:59;99133.25;;;4.77;89.52
57048;BME280;42934;54.294;18.598;2023-12-20T12:30:28;99129.72;;;4.78;89.33
57048;BME280;42934;54.294;18.598;2023-12-20T12:33:05;99131.41;;;4.79;89.30
57048;BME280;42934;54.294;18.598;2023-12-20T12:35:35;99125.34;;;4.80;89.42
57048;BME280;42934;54.294;18.598;2023-12-20T12:38:06;99104.56;;;4.78;89.10
57048;BME280;42934;54.294;18.598;2023-12-20T12:40:36;99107.59;;;4.66;89.88
57048;BME280;42934;54.294;18.598;2023-12-20T12:43:06;99115.34;;;4.68;89.45
57048;BME280;42934;54.294;18.598;2023-12-20T12:45:36;99116.59;;;4.83;89.55
57048;BME280;42934;54.294;18.598;2023-12-20T12:48:05;99108.22;;;4.73;89.33
57048;BME280;42934;54.294;18.598;2023-12-20T12:50:34;99109.53;;;4.86;89.71
57048;BME280;42934;54.294;18.598;2023-12-20T12:53:03;99112.75;;;4.68;89.74
57048;BME280;42934;54.294;18.598;2023-12-20T12:55:32;99114.38;;;4.70;89.87
57048;BME280;42934;54.294;18.598;2023-12-20T12:58:01;99107.97;;;4.81;89.09
57048;BME280;42934;54.294;18.598;2023-12-20T13:00:32;99104.88;;;4.69;89.71
57048;BME280;42934;54.294;18.598;2023-12-20T13:03:00;99099.53;;;4.74;89.08
57048;BME280;42934;54.294;18.598;2023-12-20T13:05:30;99095.63;;;4.61;89.57
57048;BME280;42934;54.294;18.598;2023-12-20T13:08:04;99100.38;;;4.74;89.70
57048;BME280;42934;54.294;18.598;2023-12-20T13:10:33;99086.56;;;4.72;89.09
57048;BME280;42934;54.294;18.598;2023-12-20T13:13:02;99089.69;;;4.82;89.67